Bartlett, IL (60103)

4:30 PM CDT on September 19, 2019 (GMT -0500)
Villas of Cambridge | | Change Station
Active Advisory: Flood Warning

Elev 814 ft 42.01 °N, 88.21 °W | Updated 14 minutes ago

Partly Cloudy
Partly Cloudy
80.8 °F
Feels Like 83 °F
N
0
Wind Variable Wind from NNE
Gusts 0.0 mph

Today
High -- | Low -- °F
--% Chance of Precip.
Yesterday
High -- | Low -- °F
Precip. -- in
Pressure 30.05 in
Visibility 10.0 miles
Clouds Few 6500 ft
Heat Index 83 °F
Dew Point 66 °F
Humidity 62%
Rainfall 0.00 in
Snow Depth Not available.
6:36 AM 6:55 PM
Waning Gibbous, 72% visible
METAR KDPA 192052Z 00000KT 10SM FEW065 28/17 A3006 RMK AO2 SLP175 T02830167 56011
Pressure 30.05 in
Visibility 10.0 miles
Clouds Few 6500 ft
Heat Index 83 °F
Dew Point 66 °F
Humidity 62%
Rainfall 0.00 in
Snow Depth Not available.
6:36 AM 6:55 PM
Waning Gibbous, 72% visible
METAR KDPA 192052Z 00000KT 10SM FEW065 28/17 A3006 RMK AO2 SLP175 T02830167 56011

Get Your Daily Forecast Email!

Thanks for signing up!

Be on the lookout for a verification email in your inbox.

You'll start receiving severe weather alerts in your inbox..

×

10-Day Weather Forecast

Almanac

Astronomy

Sep. 19, 2019 Rise Set
Actual Time
Civil Twilight
Nautical Twilight
Astronomical Twilight
Moon
Length of Visible Light
Length of Day
Tomorrow will be .
, % of the Moon is Illuminated

Today's Extremes

State Highs State Lows

Community

WunderPhotos

Category 6

Welcome to Category 6. This is the collective home for Weather Underground's featured writeups by Dr. Jeff Masters (right), Bob Henson (left), Chris Burt, and other regular contributors.

Nearby

Air Quality

  Air Quality AQ Index Pollutant
Not available.

Snow Depth

Station Depth Elevation

Earthquake Activity

City Distance Mag. Time & Date
Minimum magnitude displayed is 2.5.

Coastal Water Temperatures

Place Temperature

Stations

Nearby Weather Stations

Station Location Temp. Windchill Dew Point Humidity Wind Precip. Elev Updated Type
                   

Watches & Warnings

Flood Warning
Issued: 9:53 AM CDT Sep. 19, 2019 – National Weather Service

The Flood Warning continues for
the Des Plaines river near Des Plaines, or from Palatine Road in
Prospect Heights downstream to Irving Park Road in Chicago.
* Until Saturday afternoon.
* At 945 am Thursday the stage was 16.4 feet.
* Flood stage is 15.0 feet.
* Minor flooding is occurring and minor flooding is forecast.
* Forecast... the river will continue to fall to below flood stage by
Saturday morning.


Lat... Lon 4212 8794 4212 8784 4197 8780 4196 8790